Time;durP1;ratioP1;P1;durP2;ratioP2;P2;SDS_P1;SDS_P2;PMS_P1;PMS_P2;Temp;Humidity;BMP_temperature;BMP_pressure;BME280_temperature;BME280_humidity;BME280_pressure;Samples;Min_cycle;Max_cycle;Signal;HPM_P1;HPM_P2
2023/12/30 00:00:49;;;;;;;;;;;;;;;-140.72;0.00;52342.16;5100495;28;19940;-73
2023/12/30 00:03:14;;;;;;;;;;;;;;;-140.72;0.00;52346.22;5108442;28;19924;-73
2023/12/30 00:05:40;;;;;;;;;;;;;;;-140.72;0.00;52390.84;5073950;28;20293;-73
2023/12/30 00:08:05;;;;;;;;;;;;;;;-140.72;0.00;52325.94;5076545;28;19916;-73
2023/12/30 00:10:30;;;;;;;;;;;;;;;-140.72;0.00;52330.00;5085974;28;19985;-74
2023/12/30 00:12:56;;;;;;;;;;;;;;;-140.72;0.00;52425.34;5108430;28;20434;-73
2023/12/30 00:15:21;;;;;;;;;;;;;;;-140.72;0.00;52364.47;5062803;28;19916;-74
2023/12/30 00:17:46;;;;;;;;;;;;;;;-140.72;0.00;52386.81;5109154;28;19915;-73
2023/12/30 00:20:12;;;;;;;;;;;;;;;-140.72;0.00;52358.41;5075648;28;19916;-73
2023/12/30 00:22:37;;;;;;;;;;;;;;;-140.72;0.00;52348.25;5093960;28;19916;-73
2023/12/30 00:25:03;;;;;;;;;;;;;;;-140.72;0.00;52323.91;5081088;28;19916;-73
2023/12/30 00:27:28;;;;;;;;;;;;;;;-140.72;0.00;52321.88;5086177;28;20380;-73
2023/12/30 00:29:53;;;;;;;;;;;;;;;-140.72;0.00;52332.03;5083963;28;19985;-73
2023/12/30 00:32:18;;;;;;;;;;;;;;;-140.72;0.00;52378.69;5098121;28;20313;-73
2023/12/30 00:34:44;;;;;;;;;;;;;;;-140.72;0.00;52386.81;5098042;28;19924;-74
2023/12/30 00:37:09;;;;;;;;;;;;;;;-140.72;0.00;52330.00;5096802;28;20019;-74
2023/12/30 00:39:34;;;;;;;;;;;;;;;-140.72;0.00;52336.06;5080153;28;19928;-73
2023/12/30 00:41:59;;;;;;;;;;;;;;;-140.72;0.00;52362.44;5096098;28;19920;-74
2023/12/30 00:44:25;;;;;;;;;;;;;;;-140.72;0.00;52366.50;5082577;28;19917;-74
2023/12/30 00:46:50;;;;;;;;;;;;;;;-140.72;0.00;52350.28;5086494;28;19969;-74
2023/12/30 00:49:15;;;;;;;;;;;;;;;-140.72;0.00;52336.06;5090392;28;19924;-74
2023/12/30 00:51:40;;;;;;;;;;;;;;;-140.72;0.00;52386.81;5078402;28;19955;-74
2023/12/30 00:54:06;;;;;;;;;;;;;;;-140.72;0.00;52344.19;5057504;28;19925;-73
2023/12/30 00:56:31;;;;;;;;;;;;;;;-140.72;0.00;52390.84;5069530;28;19958;-74
2023/12/30 00:58:56;;;;;;;;;;;;;;;-140.72;0.00;52305.63;5095503;28;19916;-73
2023/12/30 01:01:21;;;;;;;;;;;;;;;-140.72;0.00;52390.84;5082991;28;19917;-74
2023/12/30 01:03:47;;;;;;;;;;;;;;;-140.72;0.00;52330.00;5082115;28;19916;-74
2023/12/30 01:06:12;;;;;;;;;;;;;;;-140.72;0.00;52342.16;5066291;28;19920;-74
2023/12/30 01:08:37;;;;;;;;;;;;;;;-140.72;0.00;52372.59;5088241;28;19928;-74
2023/12/30 01:11:03;;;;;;;;;;;;;;;-140.72;0.00;52362.44;5066627;28;20327;-73
2023/12/30 01:13:28;;;;;;;;;;;;;;;-140.72;0.00;52338.09;5093954;28;19998;-74
2023/12/30 01:15:54;;;;;;;;;;;;;;;-140.72;0.00;52354.34;5074627;28;20015;-73
2023/12/30 01:18:19;;;;;;;;;;;;;;;-140.72;0.00;52360.44;5080085;28;19927;-73
2023/12/30 01:20:44;;;;;;;;;;;;;;;-140.72;0.00;52330.00;5081389;28;19931;-73
2023/12/30 01:23:09;;;;;;;;;;;;;;;-140.72;0.00;52317.81;5083785;28;19928;-74
2023/12/30 01:25:38;;;;;;;;;;;;;;;-140.72;0.00;52321.88;5098304;28;19924;-74
2023/12/30 01:28:03;;;;;;;;;;;;;;;-140.72;0.00;52362.44;5083546;28;20018;-73
2023/12/30 01:30:29;;;;;;;;;;;;;;;-140.72;0.00;52311.72;5080748;28;19959;-74
2023/12/30 01:33:02;;;;;;;;;;;;;;;-140.72;0.00;52285.34;5065586;28;20014;-73
2023/12/30 01:35:27;;;;;;;;;;;;;;;-140.72;0.00;52352.31;5079814;28;20235;-74
2023/12/30 01:37:53;;;;;;;;;;;;;;;-140.72;0.00;52380.72;5071879;28;19927;-73
2023/12/30 01:40:18;;;;;;;;;;;;;;;-140.72;0.00;52370.56;5094937;28;19916;-73
2023/12/30 01:42:43;;;;;;;;;;;;;;;-140.72;0.00;52342.16;5099233;28;20270;-73
2023/12/30 01:45:08;;;;;;;;;;;;;;;-140.72;0.00;52360.44;5096902;28;19923;-73
2023/12/30 01:47:35;;;;;;;;;;;;;;;-140.72;0.00;52368.53;5085767;28;19962;-74
2023/12/30 01:50:01;;;;;;;;;;;;;;;-140.72;0.00;52344.19;5086367;28;20023;-73
2023/12/30 01:52:26;;;;;;;;;;;;;;;-140.72;0.00;52340.13;5098824;28;19971;-74
2023/12/30 01:54:51;;;;;;;;;;;;;;;-140.72;0.00;52301.59;5098200;28;19920;-74
2023/12/30 01:57:17;;;;;;;;;;;;;;;-140.72;0.00;52271.16;5099876;28;19926;-73
2023/12/30 01:59:44;;;;;;;;;;;;;;;-140.72;0.00;52352.31;5097930;28;20245;-74
2023/12/30 02:02:09;;;;;;;;;;;;;;;-140.72;0.00;52305.63;5098554;28;19928;-74
2023/12/30 02:04:35;;;;;;;;;;;;;;;-140.72;0.00;52263.03;5091251;28;19920;-74
2023/12/30 02:07:00;;;;;;;;;;;;;;;-140.72;0.00;52354.34;5102532;28;19967;-74
2023/12/30 02:09:25;;;;;;;;;;;;;;;-140.72;0.00;52289.41;5102904;28;19972;-73
2023/12/30 02:11:50;;;;;;;;;;;;;;;-140.72;0.00;52390.84;5102053;28;20071;-73
2023/12/30 02:14:23;;;;;;;;;;;;;;;-140.72;0.00;52334.03;5081761;28;19932;-73
2023/12/30 02:16:48;;;;;;;;;;;;;;;-140.72;0.00;52297.53;5079503;28;19920;-73
2023/12/30 02:19:13;;;;;;;;;;;;;;;-140.72;0.00;52327.97;5105864;28;20073;-73
2023/12/30 02:21:38;;;;;;;;;;;;;;;-140.72;0.00;52334.03;5077804;28;19924;-73
2023/12/30 02:24:04;;;;;;;;;;;;;;;-140.72;0.00;52309.69;5098982;28;20024;-73
2023/12/30 02:26:30;;;;;;;;;;;;;;;-140.72;0.00;52323.91;5106690;28;19923;-73
2023/12/30 02:28:55;;;;;;;;;;;;;;;-140.72;0.00;52281.28;5098471;28;19945;-73
2023/12/30 02:31:21;;;;;;;;;;;;;;;-140.72;0.00;52299.56;5104602;28;19923;-73
2023/12/30 02:33:46;;;;;;;;;;;;;;;-140.72;0.00;52313.75;5094825;28;19928;-73
2023/12/30 02:36:11;;;;;;;;;;;;;;;-140.72;0.00;52305.63;5098952;28;19923;-73
2023/12/30 02:38:37;;;;;;;;;;;;;;;-140.72;0.00;52285.34;5108797;28;19973;-73
2023/12/30 02:41:02;;;;;;;;;;;;;;;-140.72;0.00;52346.22;5070978;28;19920;-73
2023/12/30 02:43:27;;;;;;;;;;;;;;;-140.72;0.00;52372.59;5090079;28;19924;-73
2023/12/30 02:45:55;;;;;;;;;;;;;;;-140.72;0.00;52338.09;5090626;28;19955;-73
2023/12/30 02:48:20;;;;;;;;;;;;;;;-140.72;0.00;52325.94;5099123;28;19931;-73
2023/12/30 02:50:45;;;;;;;;;;;;;;;-140.72;0.00;52346.22;5080602;28;20250;-73
2023/12/30 02:53:10;;;;;;;;;;;;;;;-140.72;0.00;52299.56;5079600;28;19923;-73
2023/12/30 02:55:36;;;;;;;;;;;;;;;-140.72;0.00;52297.53;5085510;28;20311;-72
2023/12/30 02:58:01;;;;;;;;;;;;;;;-140.72;0.00;52305.63;5098799;28;19920;-73
2023/12/30 03:00:26;;;;;;;;;;;;;;;-140.72;0.00;52338.09;5095935;28;19927;-73
2023/12/30 03:02:52;;;;;;;;;;;;;;;-140.72;0.00;52258.97;5083279;28;19920;-73
2023/12/30 03:05:17;;;;;;;;;;;;;;;-140.72;0.00;52319.84;5096376;28;19920;-73
2023/12/30 03:07:42;;;;;;;;;;;;;;;-140.72;0.00;52364.47;5072696;28;20010;-73
2023/12/30 03:10:08;;;;;;;;;;;;;;;-140.72;0.00;52309.69;5090358;28;19927;-73
2023/12/30 03:12:33;;;;;;;;;;;;;;;-140.72;0.00;52362.44;5087345;28;20445;-73
2023/12/30 03:14:58;;;;;;;;;;;;;;;-140.72;0.00;52273.19;5098181;28;20353;-73
2023/12/30 03:17:24;;;;;;;;;;;;;;;-140.72;0.00;52307.66;5106751;28;20444;-73
2023/12/30 03:19:49;;;;;;;;;;;;;;;-140.72;0.00;52273.19;5080610;28;20339;-73
2023/12/30 03:22:14;;;;;;;;;;;;;;;-140.72;0.00;52307.66;5100266;28;19978;-73
2023/12/30 03:24:39;;;;;;;;;;;;;;;-140.72;0.00;52354.34;5093581;28;19930;-73
2023/12/30 03:27:04;;;;;;;;;;;;;;;-140.72;0.00;52285.34;5096095;28;19920;-73
2023/12/30 03:29:30;;;;;;;;;;;;;;;-140.72;0.00;52277.22;5080505;28;19970;-72
2023/12/30 03:31:55;;;;;;;;;;;;;;;-140.72;0.00;52350.28;5098081;28;19928;-73
2023/12/30 03:34:20;;;;;;;;;;;;;;;-140.72;0.00;52332.03;5097041;28;19920;-73
2023/12/30 03:36:46;;;;;;;;;;;;;;;-140.72;0.00;52319.84;5096145;28;19921;-73
2023/12/30 03:39:12;;;;;;;;;;;;;;;-140.72;0.00;52325.94;5077015;28;20276;-73
2023/12/30 03:41:37;;;;;;;;;;;;;;;-140.72;0.00;52279.25;5079416;28;20006;-73
2023/12/30 03:44:02;;;;;;;;;;;;;;;-140.72;0.00;52309.69;5100641;28;19961;-73
2023/12/30 03:46:27;;;;;;;;;;;;;;;-140.72;0.00;52277.22;5091920;28;19973;-73
2023/12/30 03:48:53;;;;;;;;;;;;;;;-140.72;0.00;52295.50;5083651;28;19991;-72
2023/12/30 03:51:18;;;;;;;;;;;;;;;-140.72;0.00;52297.53;5067750;28;19932;-73
2023/12/30 03:53:43;;;;;;;;;;;;;;;-140.72;0.00;52244.78;5087620;28;20026;-73
2023/12/30 03:56:08;;;;;;;;;;;;;;;-140.72;0.00;52362.44;5071626;28;20017;-73
2023/12/30 03:58:34;;;;;;;;;;;;;;;-140.72;0.00;52368.53;5090880;28;19920;-72
2023/12/30 04:00:59;;;;;;;;;;;;;;;-140.72;0.00;52279.25;5078616;28;20014;-73
2023/12/30 04:03:24;;;;;;;;;;;;;;;-140.72;0.00;52313.75;5079789;28;20014;-73
2023/12/30 04:05:49;;;;;;;;;;;;;;;-140.72;0.00;52344.19;5096646;28;20386;-73
2023/12/30 04:08:14;;;;;;;;;;;;;;;-140.72;0.00;52277.22;5099347;28;20385;-72
2023/12/30 04:10:40;;;;;;;;;;;;;;;-140.72;0.00;52293.47;5091682;28;19928;-73
2023/12/30 04:13:05;;;;;;;;;;;;;;;-140.72;0.00;52248.81;5074694;28;19966;-73
2023/12/30 04:15:30;;;;;;;;;;;;;;;-140.72;0.00;52325.94;5095098;28;19920;-73
2023/12/30 04:17:56;;;;;;;;;;;;;;;-140.72;0.00;52269.13;5094113;28;19920;-73
2023/12/30 04:20:21;;;;;;;;;;;;;;;-140.72;0.00;52340.13;5083317;28;20027;-73
2023/12/30 04:22:46;;;;;;;;;;;;;;;-140.72;0.00;52313.75;5102075;28;19927;-72
2023/12/30 04:25:11;;;;;;;;;;;;;;;-140.72;0.00;52307.66;5104286;28;19963;-72
2023/12/30 04:27:37;;;;;;;;;;;;;;;-140.72;0.00;52315.78;5091245;28;19958;-72
2023/12/30 04:30:02;;;;;;;;;;;;;;;-140.72;0.00;52285.34;5100118;28;19920;-73
2023/12/30 04:32:28;;;;;;;;;;;;;;;-140.72;0.00;52281.28;5108454;28;19962;-73
2023/12/30 04:34:53;;;;;;;;;;;;;;;-140.72;0.00;52315.78;5099467;28;20356;-73
2023/12/30 04:37:19;;;;;;;;;;;;;;;-140.72;0.00;52334.03;5092592;28;19991;-73
2023/12/30 04:39:44;;;;;;;;;;;;;;;-140.72;0.00;52287.38;5093264;28;19927;-72
2023/12/30 04:42:09;;;;;;;;;;;;;;;-140.72;0.00;52305.63;5075820;28;20293;-73
2023/12/30 04:44:34;;;;;;;;;;;;;;;-140.72;0.00;52303.59;5093263;28;20330;-73
2023/12/30 04:47:00;;;;;;;;;;;;;;;-140.72;0.00;52346.22;5098743;28;19927;-73
2023/12/30 04:49:25;;;;;;;;;;;;;;;-140.72;0.00;52269.13;5101520;28;20009;-73
2023/12/30 04:51:50;;;;;;;;;;;;;;;-140.72;0.00;52261.00;5102171;28;19927;-73
2023/12/30 04:54:15;;;;;;;;;;;;;;;-140.72;0.00;52248.81;5078382;28;19920;-73
2023/12/30 04:56:41;;;;;;;;;;;;;;;-140.72;0.00;52244.78;5086209;28;20016;-73
2023/12/30 04:59:06;;;;;;;;;;;;;;;-140.72;0.00;52285.34;5103647;28;20020;-73
2023/12/30 05:01:31;;;;;;;;;;;;;;;-140.72;0.00;52265.06;5106443;28;20262;-73
2023/12/30 05:03:56;;;;;;;;;;;;;;;-140.72;0.00;52261.00;5101483;28;20288;-73
2023/12/30 05:06:22;;;;;;;;;;;;;;;-140.72;0.00;52356.38;5086583;28;20314;-73
2023/12/30 05:08:48;;;;;;;;;;;;;;;-140.72;0.00;52301.59;5098171;28;19928;-72
2023/12/30 05:11:13;;;;;;;;;;;;;;;-140.72;0.00;52281.28;5096715;28;20344;-73
2023/12/30 05:13:39;;;;;;;;;;;;;;;-140.72;0.00;52277.22;5093639;28;20320;-73
2023/12/30 05:16:04;;;;;;;;;;;;;;;-140.72;0.00;52321.88;5102465;28;19942;-72
2023/12/30 05:18:29;;;;;;;;;;;;;;;-140.72;0.00;52291.44;5108411;28;20003;-73
2023/12/30 05:20:55;;;;;;;;;;;;;;;-140.72;0.00;52289.41;5107376;28;19931;-72
2023/12/30 05:23:20;;;;;;;;;;;;;;;-140.72;0.00;52336.06;5080786;28;20400;-73
2023/12/30 05:25:45;;;;;;;;;;;;;;;-140.72;0.00;52289.41;5108834;28;19931;-73
2023/12/30 05:28:10;;;;;;;;;;;;;;;-140.72;0.00;52252.88;5102271;28;19920;-73
2023/12/30 05:30:36;;;;;;;;;;;;;;;-140.72;0.00;52291.44;5084177;28;19920;-73
2023/12/30 05:33:01;;;;;;;;;;;;;;;-140.72;0.00;52238.69;5078527;28;19934;-72
2023/12/30 05:35:26;;;;;;;;;;;;;;;-140.72;0.00;52293.47;5099615;28;19920;-73
2023/12/30 05:37:51;;;;;;;;;;;;;;;-140.72;0.00;52236.66;5085490;28;19928;-73
2023/12/30 05:40:17;;;;;;;;;;;;;;;-140.72;0.00;52285.34;5082982;28;19921;-73
2023/12/30 05:42:42;;;;;;;;;;;;;;;-140.72;0.00;52313.75;5079529;28;19978;-73
2023/12/30 05:45:07;;;;;;;;;;;;;;;-140.72;0.00;52315.78;5084219;28;20370;-73
2023/12/30 05:47:32;;;;;;;;;;;;;;;-140.72;0.00;52289.41;5102589;28;19916;-74
2023/12/30 05:49:58;;;;;;;;;;;;;;;-140.72;0.00;52281.28;5092681;28;19999;-72
2023/12/30 05:52:23;;;;;;;;;;;;;;;-140.72;0.00;52261.00;5094744;28;20385;-72
2023/12/30 05:54:48;;;;;;;;;;;;;;;-140.72;0.00;52325.94;5074639;28;19923;-73
2023/12/30 05:57:13;;;;;;;;;;;;;;;-140.72;0.00;52317.81;5085447;28;20289;-72
2023/12/30 05:59:40;;;;;;;;;;;;;;;-140.72;0.00;52283.31;5102844;28;19975;-72
2023/12/30 06:02:05;;;;;;;;;;;;;;;-140.72;0.00;52309.69;5095871;28;19917;-72
2023/12/30 06:04:31;;;;;;;;;;;;;;;-140.72;0.00;52293.47;5104685;28;19931;-75
2023/12/30 06:06:56;;;;;;;;;;;;;;;-140.72;0.00;52317.81;5100169;28;19965;-72
2023/12/30 06:09:21;;;;;;;;;;;;;;;-140.72;0.00;52321.88;5059247;28;20007;-73
2023/12/30 06:11:46;;;;;;;;;;;;;;;-140.72;0.00;52313.75;5079479;28;20053;-73
2023/12/30 06:14:11;;;;;;;;;;;;;;;-140.72;0.00;52303.59;5096611;28;20010;-73
2023/12/30 06:16:37;;;;;;;;;;;;;;;-140.72;0.00;52273.19;5080007;28;19928;-73
2023/12/30 06:19:02;;;;;;;;;;;;;;;-140.72;0.00;52261.00;5086495;28;19928;-73
2023/12/30 06:21:28;;;;;;;;;;;;;;;-140.72;0.00;52281.28;5104739;28;20011;-74
2023/12/30 06:23:53;;;;;;;;;;;;;;;-140.72;0.00;52309.69;5089181;28;19960;-74
2023/12/30 06:26:18;;;;;;;;;;;;;;;-140.72;0.00;52267.09;5101640;28;20377;-74
2023/12/30 06:28:45;;;;;;;;;;;;;;;-140.72;0.00;52256.94;5076619;28;19954;-73
2023/12/30 06:31:10;;;;;;;;;;;;;;;-140.72;0.00;52246.78;5075857;28;20026;-73
2023/12/30 06:33:35;;;;;;;;;;;;;;;-140.72;0.00;52273.19;5097449;28;20098;-73
2023/12/30 06:36:00;;;;;;;;;;;;;;;-140.72;0.00;52263.03;5080931;28;20011;-73
2023/12/30 06:38:25;;;;;;;;;;;;;;;-140.72;0.00;52281.28;5087294;28;19924;-73
2023/12/30 06:40:51;;;;;;;;;;;;;;;-140.72;0.00;52277.22;5100305;28;19924;-73
2023/12/30 06:43:16;;;;;;;;;;;;;;;-140.72;0.00;52273.19;5089355;28;19920;-73
2023/12/30 06:45:42;;;;;;;;;;;;;;;-140.72;0.00;52297.53;5080505;28;19919;-73
2023/12/30 06:48:07;;;;;;;;;;;;;;;-140.72;0.00;52242.75;5090359;28;19921;-73
2023/12/30 06:50:32;;;;;;;;;;;;;;;-140.72;0.00;52265.06;5095891;28;19973;-73
2023/12/30 06:53:00;;;;;;;;;;;;;;;-140.72;0.00;52254.91;5086278;28;19928;-73
2023/12/30 06:55:26;;;;;;;;;;;;;;;-140.72;0.00;52238.69;5088241;28;19939;-73
2023/12/30 06:57:51;;;;;;;;;;;;;;;-140.72;0.00;52240.72;5091540;28;19920;-73
2023/12/30 07:00:16;;;;;;;;;;;;;;;-140.72;0.00;52275.19;5092879;28;19916;-73
2023/12/30 07:02:41;;;;;;;;;;;;;;;-140.72;0.00;52275.19;5104618;28;19926;-72
2023/12/30 07:05:07;;;;;;;;;;;;;;;-140.72;0.00;52248.81;5109995;28;19916;-73
2023/12/30 07:07:33;;;;;;;;;;;;;;;-140.72;0.00;52265.06;5097415;28;19920;-73
2023/12/30 07:09:58;;;;;;;;;;;;;;;-140.72;0.00;52293.47;5110364;28;19916;-73
2023/12/30 07:12:23;;;;;;;;;;;;;;;-140.72;0.00;52214.34;5080966;28;20002;-74
2023/12/30 07:14:48;;;;;;;;;;;;;;;-140.72;0.00;52222.44;5099118;28;19927;-73
2023/12/30 07:17:15;;;;;;;;;;;;;;;-140.72;0.00;52248.81;5077102;28;19943;-73
2023/12/30 07:19:40;;;;;;;;;;;;;;;-140.72;0.00;52289.41;5090514;28;20000;-73
2023/12/30 07:22:05;;;;;;;;;;;;;;;-140.72;0.00;52246.78;5095718;28;20300;-72
2023/12/30 07:24:30;;;;;;;;;;;;;;;-140.72;0.00;52236.66;5099355;28;19981;-74
2023/12/30 07:26:55;;;;;;;;;;;;;;;-140.72;0.00;52267.09;5080464;28;20487;-73
2023/12/30 07:29:21;;;;;;;;;;;;;;;-140.72;0.00;52232.59;5094706;28;20352;-72
2023/12/30 07:31:46;;;;;;;;;;;;;;;-140.72;0.00;52271.16;5092969;28;20238;-72
2023/12/30 07:34:11;;;;;;;;;;;;;;;-140.72;0.00;52275.19;5089981;28;19927;-72
2023/12/30 07:36:36;;;;;;;;;;;;;;;-140.72;0.00;52271.16;5095472;28;20023;-72
2023/12/30 07:39:03;;;;;;;;;;;;;;;-140.72;0.00;52289.41;5093612;28;20292;-72
2023/12/30 07:41:28;;;;;;;;;;;;;;;-140.72;0.00;52252.88;5095127;28;19969;-72
2023/12/30 07:43:53;;;;;;;;;;;;;;;-140.72;0.00;52275.19;5093519;28;20332;-73
2023/12/30 07:46:19;;;;;;;;;;;;;;;-140.72;0.00;52307.66;5081462;28;19958;-72
2023/12/30 07:48:44;;;;;;;;;;;;;;;-140.72;0.00;52261.00;5093934;28;19927;-72
2023/12/30 07:51:10;;;;;;;;;;;;;;;-140.72;0.00;52269.13;5097864;28;19977;-72
2023/12/30 07:53:35;;;;;;;;;;;;;;;-140.72;0.00;52265.06;5078520;28;19923;-72
2023/12/30 07:56:00;;;;;;;;;;;;;;;-140.72;0.00;52267.09;5098648;28;19920;-72
2023/12/30 07:58:25;;;;;;;;;;;;;;;-140.72;0.00;52269.13;5097552;28;19924;-73
2023/12/30 08:00:51;;;;;;;;;;;;;;;-140.72;0.00;52261.00;5066425;28;19977;-74
2023/12/30 08:03:16;;;;;;;;;;;;;;;-140.72;0.00;52263.03;5100019;28;20038;-74
2023/12/30 08:05:41;;;;;;;;;;;;;;;-140.72;0.00;52242.75;5092288;28;19920;-75
2023/12/30 08:08:08;;;;;;;;;;;;;;;-140.72;0.00;52265.06;5072050;28;19939;-80
2023/12/30 08:10:33;;;;;;;;;;;;;;;-140.72;0.00;52250.84;5075435;28;19923;-76
2023/12/30 08:12:58;;;;;;;;;;;;;;;-140.72;0.00;52242.75;5080704;28;19924;-77
2023/12/30 08:15:24;;;;;;;;;;;;;;;-140.72;0.00;52230.56;5075505;28;20373;-74
2023/12/30 08:17:49;;;;;;;;;;;;;;;-140.72;0.00;52321.88;5087725;28;20015;-75
2023/12/30 08:20:15;;;;;;;;;;;;;;;-140.72;0.00;52230.56;5092130;28;20377;-73
2023/12/30 08:22:41;;;;;;;;;;;;;;;-140.72;0.00;52293.47;5084513;28;19916;-73
2023/12/30 08:25:07;;;;;;;;;;;;;;;-140.72;0.00;52198.09;5081187;28;19920;-77
2023/12/30 08:27:32;;;;;;;;;;;;;;;-140.72;0.00;52248.81;5103661;28;19919;-73
2023/12/30 08:29:58;;;;;;;;;;;;;;;-140.72;0.00;52240.72;5105551;28;19915;-76
2023/12/30 08:32:23;;;;;;;;;;;;;;;-140.72;0.00;52277.22;5096979;28;20332;-73
2023/12/30 08:34:48;;;;;;;;;;;;;;;-140.72;0.00;52330.00;5076607;28;19921;-72
2023/12/30 08:37:13;;;;;;;;;;;;;;;-140.72;0.00;52281.28;5102049;28;19931;-76
2023/12/30 08:39:38;;;;;;;;;;;;;;;-140.72;0.00;52246.78;5075239;28;20062;-73
2023/12/30 08:42:05;;;;;;;;;;;;;;;-140.72;0.00;52254.91;5080957;28;20014;-74
2023/12/30 08:44:30;;;;;;;;;;;;;;;-140.72;0.00;52232.59;5075382;28;19943;-73
2023/12/30 08:46:56;;;;;;;;;;;;;;;-140.72;0.00;52196.06;5103979;28;19919;-74
2023/12/30 08:49:21;;;;;;;;;;;;;;;-140.72;0.00;52277.22;5099352;28;19920;-74
2023/12/30 08:51:46;;;;;;;;;;;;;;;-140.72;0.00;52238.69;5071485;28;20367;-72
2023/12/30 08:54:11;;;;;;;;;;;;;;;-140.72;0.00;52265.06;5073867;28;19947;-74
2023/12/30 08:56:37;;;;;;;;;;;;;;;-140.72;0.00;52254.91;5074431;28;20376;-73
2023/12/30 08:59:02;;;;;;;;;;;;;;;-140.72;0.00;52224.47;5080134;28;19919;-73
2023/12/30 09:01:27;;;;;;;;;;;;;;;-140.72;0.00;52216.34;5099143;28;19973;-73
2023/12/30 09:03:54;;;;;;;;;;;;;;;-140.72;0.00;52242.75;5088971;28;19924;-74
2023/12/30 09:06:19;;;;;;;;;;;;;;;-140.72;0.00;52218.38;5078014;28;20400;-74
2023/12/30 09:08:45;;;;;;;;;;;;;;;-140.72;0.00;52234.63;5082206;28;19917;-72
2023/12/30 09:11:19;;;;;;;;;;;;;;;-140.72;0.00;52216.34;5064132;28;19916;-73
2023/12/30 09:13:45;;;;;;;;;;;;;;;-140.72;0.00;52248.81;5107516;28;19920;-73
2023/12/30 09:16:10;;;;;;;;;;;;;;;-140.72;0.00;52202.16;5083627;28;19968;-76
2023/12/30 09:18:36;;;;;;;;;;;;;;;-140.72;0.00;52240.72;5084720;28;19920;-74
2023/12/30 09:21:01;;;;;;;;;;;;;;;-140.72;0.00;52248.81;5097731;28;19954;-73
2023/12/30 09:23:26;;;;;;;;;;;;;;;-140.72;0.00;52228.53;5099378;28;20450;-74
2023/12/30 09:25:51;;;;;;;;;;;;;;;-140.72;0.00;52240.72;5095628;28;21005;-73
2023/12/30 09:28:17;;;;;;;;;;;;;;;-140.72;0.00;52222.44;5084766;28;20018;-75
2023/12/30 09:30:42;;;;;;;;;;;;;;;-140.72;0.00;52157.53;5080969;28;19943;-74
2023/12/30 09:33:07;;;;;;;;;;;;;;;-140.72;0.00;52196.06;5080083;28;19927;-73
2023/12/30 09:35:32;;;;;;;;;;;;;;;-140.72;0.00;52228.53;5082651;28;20041;-73
2023/12/30 09:37:57;;;;;;;;;;;;;;;-140.72;0.00;52228.53;5095300;28;20057;-73
2023/12/30 09:40:23;;;;;;;;;;;;;;;-140.72;0.00;52248.81;5073616;28;19974;-73
2023/12/30 09:42:50;;;;;;;;;;;;;;;-140.72;0.00;52226.50;5100810;28;19920;-76
2023/12/30 09:45:16;;;;;;;;;;;;;;;-140.72;0.00;52198.09;5095802;28;20010;-75
2023/12/30 09:47:41;;;;;;;;;;;;;;;-140.72;0.00;52212.31;5101579;28;20014;-76
2023/12/30 09:50:07;;;;;;;;;;;;;;;-140.72;0.00;52161.56;5101721;28;20347;-80
2023/12/30 09:52:32;;;;;;;;;;;;;;;-140.72;0.00;52240.72;5094308;28;20011;-73
2023/12/30 09:54:58;;;;;;;;;;;;;;;-140.72;0.00;52248.81;5106913;28;19955;-72
2023/12/30 09:57:23;;;;;;;;;;;;;;;-140.72;0.00;52238.69;5104968;28;20254;-73
2023/12/30 09:59:50;;;;;;;;;;;;;;;-140.72;0.00;52222.44;5086086;28;19920;-73
2023/12/30 10:02:15;;;;;;;;;;;;;;;-140.72;0.00;52252.88;5106069;28;19930;-73
2023/12/30 10:04:40;;;;;;;;;;;;;;;-140.72;0.00;52192.00;5080305;28;20373;-73
2023/12/30 10:07:07;;;;;;;;;;;;;;;-140.72;0.00;52196.06;5083057;28;19919;-73
2023/12/30 10:09:32;;;;;;;;;;;;;;;-140.72;0.00;52200.13;5079948;28;19924;-73
2023/12/30 10:11:58;;;;;;;;;;;;;;;-140.72;0.00;52216.34;5095103;28;19920;-72
2023/12/30 10:14:23;;;;;;;;;;;;;;;-140.72;0.00;52212.31;5081093;28;19920;-72
2023/12/30 10:16:48;;;;;;;;;;;;;;;-140.72;0.00;52222.44;5095191;28;19926;-72
2023/12/30 10:19:15;;;;;;;;;;;;;;;-140.72;0.00;52220.41;5098112;28;19989;-72
2023/12/30 10:21:40;;;;;;;;;;;;;;;-140.72;0.00;52256.94;5098366;28;19929;-72
2023/12/30 10:24:06;;;;;;;;;;;;;;;-140.72;0.00;52171.72;5083628;28;19943;-72
2023/12/30 10:26:32;;;;;;;;;;;;;;;-140.72;0.00;52135.19;5079212;28;20242;-72
2023/12/30 10:28:58;;;;;;;;;;;;;;;-140.72;0.00;52252.88;5101575;28;19919;-73
2023/12/30 10:31:23;;;;;;;;;;;;;;;-140.72;0.00;52216.34;5114964;28;19935;-73
2023/12/30 10:33:51;;;;;;;;;;;;;;;-140.72;0.00;52192.00;5097143;28;19920;-72
2023/12/30 10:36:17;;;;;;;;;;;;;;;-140.72;0.00;52149.41;5100141;28;19924;-73
2023/12/30 10:38:43;;;;;;;;;;;;;;;-140.72;0.00;52179.84;5098900;28;19920;-73
2023/12/30 10:41:08;;;;;;;;;;;;;;;-140.72;0.00;52202.16;5102554;28;19939;-73
2023/12/30 10:43:34;;;;;;;;;;;;;;;-140.72;0.00;52189.97;5081269;28;19931;-73
2023/12/30 10:46:00;;;;;;;;;;;;;;;-140.72;0.00;52173.75;5085498;28;19931;-73
2023/12/30 10:48:32;;;;;;;;;;;;;;;-140.72;0.00;52218.38;5100974;28;20018;-73
2023/12/30 10:50:58;;;;;;;;;;;;;;;-140.72;0.00;52187.97;5093906;28;19943;-73
2023/12/30 10:53:27;;;;;;;;;;;;;;;-140.72;0.00;52208.25;5103954;28;20358;-73
2023/12/30 10:55:55;;;;;;;;;;;;;;;-140.72;0.00;52187.97;5081551;28;20284;-73
2023/12/30 10:58:21;;;;;;;;;;;;;;;-140.72;0.00;52157.53;5075855;28;20380;-73
2023/12/30 11:01:06;;;;;;;;;;;;;;;-140.72;0.00;52165.63;5076655;28;20388;-73
2023/12/30 11:03:33;;;;;;;;;;;;;;;-140.72;0.00;52198.09;5105215;28;19919;-73
2023/12/30 11:06:01;;;;;;;;;;;;;;;-140.72;0.00;52236.66;5098230;28;19934;-73
2023/12/30 11:08:27;;;;;;;;;;;;;;;-140.72;0.00;52216.34;5097107;28;19924;-73
2023/12/30 11:10:52;;;;;;;;;;;;;;;-140.72;0.00;52163.59;5092747;28;19920;-72
2023/12/30 11:13:21;;;;;;;;;;;;;;;-140.72;0.00;52137.22;5098267;28;19920;-72
2023/12/30 11:15:46;;;;;;;;;;;;;;;-140.72;0.00;52189.97;5096454;28;19928;-73
2023/12/30 11:18:15;;;;;;;;;;;;;;;-140.72;0.00;52155.50;5083188;28;19920;-73
2023/12/30 11:20:46;;;;;;;;;;;;;;;-140.72;0.00;52228.53;5098922;28;19924;-73
2023/12/30 11:23:13;;;;;;;;;;;;;;;-140.72;0.00;52131.16;5090668;28;19943;-73
2023/12/30 11:25:42;;;;;;;;;;;;;;;-140.72;0.00;52149.41;5095322;28;19920;-72
2023/12/30 11:28:14;;;;;;;;;;;;;;;-140.72;0.00;52212.31;5095260;28;19935;-72
2023/12/30 11:30:39;;;;;;;;;;;;;;;-140.72;0.00;52192.00;5094922;28;19927;-73
2023/12/30 11:33:05;;;;;;;;;;;;;;;-140.72;0.00;52240.72;5093861;28;19920;-73
2023/12/30 11:35:30;;;;;;;;;;;;;;;-140.72;0.00;52208.25;5084164;28;19920;-73
2023/12/30 11:37:56;;;;;;;;;;;;;;;-140.72;0.00;52220.41;5099049;28;20331;-73
2023/12/30 11:40:23;;;;;;;;;;;;;;;-140.72;0.00;52202.16;5098980;28;20389;-73
2023/12/30 11:42:48;;;;;;;;;;;;;;;-140.72;0.00;52196.06;5104566;28;19920;-72
2023/12/30 11:45:14;;;;;;;;;;;;;;;-140.72;0.00;52194.03;5083001;28;19936;-73
2023/12/30 11:47:39;;;;;;;;;;;;;;;-140.72;0.00;52228.53;5072077;28;19928;-73
2023/12/30 11:50:07;;;;;;;;;;;;;;;-140.72;0.00;52149.41;5093311;28;19936;-72
2023/12/30 11:52:32;;;;;;;;;;;;;;;-140.72;0.00;52214.34;5101869;28;19927;-73
2023/12/30 11:54:57;;;;;;;;;;;;;;;-140.72;0.00;52161.56;5097902;28;19973;-72
2023/12/30 11:57:23;;;;;;;;;;;;;;;-140.72;0.00;52208.25;5097390;28;19920;-73
2023/12/30 11:59:49;;;;;;;;;;;;;;;-140.72;0.00;52228.53;5099756;28;20273;-73
2023/12/30 12:02:16;;;;;;;;;;;;;;;-140.72;0.00;52175.78;5077723;28;19970;-73
2023/12/30 12:04:42;;;;;;;;;;;;;;;-140.72;0.00;52183.91;5096411;28;20126;-73
2023/12/30 12:07:07;;;;;;;;;;;;;;;-140.72;0.00;52189.97;5081851;28;19963;-73
2023/12/30 12:09:32;;;;;;;;;;;;;;;-140.72;0.00;52167.66;5097508;28;19920;-73
2023/12/30 12:11:58;;;;;;;;;;;;;;;-140.72;0.00;52202.16;5102486;28;19919;-73
2023/12/30 12:14:24;;;;;;;;;;;;;;;-140.72;0.00;52167.66;5098789;28;20412;-73
2023/12/30 12:16:50;;;;;;;;;;;;;;;-140.72;0.00;52133.16;5097352;28;19928;-73
2023/12/30 12:19:15;;;;;;;;;;;;;;;-140.72;0.00;52123.03;5106112;28;19943;-73
2023/12/30 12:21:40;;;;;;;;;;;;;;;-140.72;0.00;52141.28;5091636;28;19990;-73
2023/12/30 12:24:06;;;;;;;;;;;;;;;-140.72;0.00;52169.69;5100866;28;19920;-73
2023/12/30 12:26:31;;;;;;;;;;;;;;;-140.72;0.00;52139.25;5084566;28;19926;-73